Time;durP1;ratioP1;P1;durP2;ratioP2;P2;SDS_P1;SDS_P2;PMS_P1;PMS_P2;Temp;Humidity;BMP_temperature;BMP_pressure;BME280_temperature;BME280_humidity;BME280_pressure;Samples;Min_cycle;Max_cycle;Signal;HPM_P1;HPM_P2
2022/12/26 00:01:20;;;;;;;5.77;3.30;;;11.60;99.90;;;;;;5078262;28;20178;-42
2022/12/26 00:03:46;;;;;;;3.57;3.23;;;11.60;99.90;;;;;;5058557;28;20208;-43
2022/12/26 00:06:17;;;;;;;3.27;2.97;;;11.60;99.90;;;;;;5075766;28;20671;-42
2022/12/26 00:08:43;;;;;;;4.03;3.47;;;11.50;99.90;;;;;;5075632;28;20266;-44
2022/12/26 00:11:09;;;;;;;3.30;3.00;;;11.50;99.90;;;;;;5075230;28;20901;-41
2022/12/26 00:13:35;;;;;;;4.33;3.93;;;11.50;1.00;;;;;;5076404;28;20460;-44
2022/12/26 00:16:07;;;;;;;3.90;3.43;;;11.50;1.00;;;;;;5075689;28;20188;-41
2022/12/26 00:18:32;;;;;;;3.53;2.80;;;11.50;1.00;;;;;;5075297;28;20196;-44
2022/12/26 00:20:59;;;;;;;4.47;3.40;;;11.50;1.00;;;;;;5076237;28;20474;-43
2022/12/26 00:23:24;;;;;;;3.20;2.90;;;11.40;1.00;;;;;;5078228;28;20177;-43
2022/12/26 00:25:50;;;;;;;3.67;3.27;;;11.40;1.00;;;;;;5079340;28;20428;-41
2022/12/26 00:28:16;;;;;;;4.27;3.00;;;11.40;1.00;;;;;;5078341;28;20213;-43
2022/12/26 00:30:41;;;;;;;3.30;3.00;;;11.30;1.00;;;;;;5078831;28;20212;-42
2022/12/26 00:33:07;;;;;;;3.20;2.90;;;11.30;1.00;;;;;;5061105;28;20185;-42
2022/12/26 00:35:32;;;;;;;3.40;2.80;;;11.30;1.00;;;;;;5079657;28;20181;-45
2022/12/26 00:37:58;;;;;;;4.50;3.50;;;11.30;1.00;;;;;;5078678;28;20180;-45
2022/12/26 00:40:23;;;;;;;2.93;2.70;;;11.30;1.00;;;;;;5079712;28;20185;-42
2022/12/26 00:42:49;;;;;;;3.70;3.30;;;11.30;1.00;;;;;;5078769;28;20629;-41
2022/12/26 00:45:15;;;;;;;3.80;3.40;;;11.20;1.00;;;;;;5078421;28;20271;-42
2022/12/26 00:47:40;;;;;;;4.13;3.17;;;11.20;1.00;;;;;;5078386;28;20212;-44
2022/12/26 00:50:06;;;;;;;3.60;3.30;;;11.30;1.00;;;;;;5081555;28;20176;-43
2022/12/26 00:52:32;;;;;;;4.20;3.40;;;11.20;1.00;;;;;;5098177;28;20173;-43
2022/12/26 00:54:57;;;;;;;3.80;3.40;;;11.20;1.00;;;;;;5098811;28;20430;-45
2022/12/26 00:57:23;;;;;;;3.63;3.30;;;11.20;11.40;;;;;;5098326;28;20245;-42
2022/12/26 00:59:49;;;;;;;3.90;3.53;;;11.20;21.80;;;;;;5097478;28;20196;-41
2022/12/26 01:04:58;;;;;;;4.07;3.50;;;11.10;67.50;;;;;;5083592;28;20184;-43
2022/12/26 01:07:24;;;;;;;3.87;3.40;;;11.10;76.70;;;;;;5099262;28;20729;-42
2022/12/26 01:09:49;;;;;;;3.70;3.30;;;11.10;97.20;;;;;;5098460;28;20176;-43
2022/12/26 01:12:15;;;;;;;4.80;3.40;;;11.10;99.90;;;;;;5098755;28;20228;-41
2022/12/26 01:14:41;;;;;;;3.80;3.40;;;11.10;99.90;;;;;;5097827;28;20611;-41
2022/12/26 01:17:06;;;;;;;3.40;3.10;;;11.10;99.90;;;;;;5095436;28;20168;-44
2022/12/26 01:19:32;;;;;;;3.70;3.40;;;11.10;99.90;;;;;;5094742;28;20544;-42
2022/12/26 01:21:57;;;;;;;3.40;3.10;;;11.10;99.90;;;;;;5095624;28;20447;-41
2022/12/26 01:24:23;;;;;;;4.00;3.10;;;11.10;99.90;;;;;;5097190;28;20237;-44
2022/12/26 01:26:49;;;;;;;3.70;3.40;;;11.10;99.90;;;;;;5094948;28;20172;-41
2022/12/26 01:29:14;;;;;;;4.13;2.80;;;11.10;99.90;;;;;;5096652;28;20633;-40
2022/12/26 01:31:40;;;;;;;4.23;3.53;;;11.10;99.90;;;;;;5096034;28;20177;-41
2022/12/26 01:34:05;;;;;;;3.60;3.30;;;11.10;99.90;;;;;;5093832;28;20223;-42
2022/12/26 01:36:31;;;;;;;3.80;3.50;;;11.10;99.90;;;;;;5096056;28;20230;-41
2022/12/26 01:38:58;;;;;;;3.23;2.93;;;11.10;99.90;;;;;;5095122;28;20505;-43
2022/12/26 01:41:23;;;;;;;3.50;3.20;;;11.10;99.90;;;;;;5095624;28;20185;-41
2022/12/26 01:43:49;;;;;;;3.20;2.90;;;11.10;99.90;;;;;;5097779;28;20858;-42
2022/12/26 01:46:16;;;;;;;3.83;3.50;;;11.10;99.90;;;;;;5097549;28;20259;-42
2022/12/26 01:48:41;;;;;;;3.13;2.83;;;11.10;99.90;;;;;;5084892;28;20207;-42
2022/12/26 01:51:07;;;;;;;3.60;3.30;;;11.10;99.90;;;;;;5079875;28;20458;-44
2022/12/26 01:53:42;;;;;;;3.77;3.20;;;11.10;99.90;;;;;;5097493;28;20168;-42
2022/12/26 01:56:11;;;;;;;4.30;3.00;;;11.10;99.90;;;;;;5098187;28;20221;-42
2022/12/26 01:58:41;;;;;;;3.53;3.17;;;11.10;99.90;;;;;;5079589;28;20462;-42
2022/12/26 02:01:09;;;;;;;3.70;3.40;;;11.10;99.90;;;;;;5097658;28;20763;-44
2022/12/26 02:06:21;;;;;;;4.33;3.93;;;11.10;99.90;;;;;;5097408;28;20455;-42
2022/12/26 02:08:46;;;;;;;3.17;2.87;;;11.20;99.90;;;;;;5097877;28;20445;-42
2022/12/26 02:11:17;;;;;;;3.37;3.07;;;11.20;99.90;;;;;;5097719;28;20532;-42
2022/12/26 02:13:43;;;;;;;3.10;2.80;;;11.20;99.90;;;;;;5098054;28;20188;-44
2022/12/26 02:16:13;;;;;;;3.97;3.07;;;11.20;99.90;;;;;;5097894;28;20465;-40
2022/12/26 02:18:39;;;;;;;2.70;2.50;;;11.20;99.90;;;;;;5097195;28;20341;-42
2022/12/26 02:21:16;;;;;;;3.37;3.07;;;11.20;99.90;;;;;;5079900;28;20832;-43
2022/12/26 02:24:23;;;;;;;3.30;2.93;;;11.20;99.90;;;;;;5078871;28;20198;-41
2022/12/26 02:27:04;;;;;;;3.53;3.07;;;11.20;99.90;;;;;;5079193;28;21016;-41
2022/12/26 02:29:41;;;;;;;4.13;3.00;;;11.20;99.90;;;;;;5095401;28;20848;-42
2022/12/26 02:32:34;;;;;;;3.50;3.20;;;11.20;99.90;;;;;;5095578;28;20401;-42
2022/12/26 02:35:27;;;;;;;3.13;2.80;;;11.20;99.90;;;;;;5095480;28;20891;-43
2022/12/26 02:38:04;;;;;;;3.50;3.20;;;11.20;99.90;;;;;;5096209;28;20461;-44
2022/12/26 02:41:00;;;;;;;3.73;3.17;;;11.20;99.90;;;;;;5096282;28;20429;-43
2022/12/26 02:43:45;;;;;;;3.80;3.40;;;11.20;99.90;;;;;;5095483;28;20417;-42
2022/12/26 03:13:09;;;;;;;3.90;3.37;;;11.20;99.90;;;;;;5095260;28;20455;-42
2022/12/26 03:15:15;;;;;;;4.30;3.57;;;11.30;99.90;;;;;;5100797;28;20713;-42
2022/12/26 03:17:50;;;;;;;4.03;2.90;;;11.30;99.90;;;;;;5082836;28;20466;-42
2022/12/26 03:20:23;;;;;;;3.60;3.30;;;11.20;99.90;;;;;;5101288;28;20441;-42
2022/12/26 03:22:54;;;;;;;3.23;2.63;;;11.20;99.90;;;;;;5083106;28;20472;-41
2022/12/26 03:28:10;;;;;;;3.60;3.00;;;11.20;99.90;;;;;;5085596;28;20417;-41
2022/12/26 03:30:48;;;;;;;3.10;2.80;;;11.20;99.90;;;;;;5083213;28;20438;-42
2022/12/26 03:35:59;;;;;;;3.03;2.73;;;11.10;99.90;;;;;;5100596;28;20453;-42
2022/12/26 03:38:36;;;;;;;4.70;3.07;;;11.10;99.90;;;;;;5100115;28;20469;-43
2022/12/26 04:46:37;;;;;;;3.40;2.63;;;11.10;1.00;;;;;;5082816;28;20434;-42
2022/12/26 04:51:49;;;;;;;3.77;3.10;;;11.10;1.00;;;;;;5098755;28;20418;-42
2022/12/26 04:54:14;;;;;;;4.17;3.77;;;11.10;1.00;;;;;;5098908;28;20713;-46
2022/12/26 04:56:40;;;;;;;3.17;2.73;;;11.10;1.00;;;;;;5099420;28;20861;-44
2022/12/26 04:59:06;;;;;;;3.47;2.80;;;11.10;1.00;;;;;;5098807;28;20242;-42
2022/12/26 05:09:52;;;;;;;3.77;3.27;;;11.20;99.90;;;;;;5082822;28;20525;-43
2022/12/26 05:12:19;;;;;;;4.17;3.20;;;11.10;99.90;;;;;;5079961;28;20572;-43
2022/12/26 05:14:44;;;;;;;3.40;2.80;;;11.10;99.90;;;;;;5098715;28;20499;-41
2022/12/26 05:28:41;;;;;;;3.77;3.03;;;11.00;1.00;;;;;;5098612;28;20417;-43
2022/12/26 05:31:08;;;;;;;4.13;3.27;;;11.00;1.00;;;;;;5098793;28;20445;-42
2022/12/26 05:36:19;;;;;;;3.00;2.70;;;11.00;1.00;;;;;;5098261;28;20456;-43
2022/12/26 05:38:45;;;;;;;3.27;2.73;;;11.00;1.00;;;;;;5097473;28;20526;-42
2022/12/26 05:41:10;;;;;;;3.50;3.20;;;11.00;1.00;;;;;;5097167;28;20686;-44
2022/12/26 05:43:36;;;;;;;3.90;3.60;;;11.00;1.00;;;;;;5096972;28;20232;-43
2022/12/26 05:46:02;;;;;;;3.40;3.10;;;11.00;1.00;;;;;;5096099;28;20568;-44
2022/12/26 05:48:27;;;;;;;3.30;2.93;;;11.00;1.00;;;;;;5096717;28;20180;-43
2022/12/26 05:50:58;;;;;;;3.10;2.80;;;11.00;1.00;;;;;;5096492;28;20237;-43
2022/12/26 05:53:23;;;;;;;3.37;2.80;;;11.00;1.00;;;;;;5097405;28;20161;-43
2022/12/26 05:55:49;;;;;;;3.27;2.80;;;11.00;1.00;;;;;;5097690;28;20518;-43
2022/12/26 05:58:14;;;;;;;4.70;4.30;;;11.00;1.00;;;;;;5096022;28;20273;-43
2022/12/26 06:00:40;;;;;;;3.80;3.03;;;11.00;1.00;;;;;;5096168;28;20619;-42
2022/12/26 06:03:05;;;;;;;3.40;2.90;;;11.00;1.00;;;;;;5097131;28;20237;-42
2022/12/26 06:05:38;;;;;;;5.43;3.43;;;11.00;1.00;;;;;;5096684;28;20272;-42
2022/12/26 06:08:03;;;;;;;3.40;2.93;;;11.10;1.00;;;;;;5097307;28;20176;-41
2022/12/26 06:10:37;;;;;;;2.97;2.70;;;11.10;1.00;;;;;;5095611;28;20505;-42
2022/12/26 06:13:02;;;;;;;3.70;3.30;;;11.10;1.00;;;;;;5097000;28;20184;-42
2022/12/26 06:15:28;;;;;;;3.77;3.33;;;11.10;99.90;;;;;;5096504;28;20853;-43
2022/12/26 06:17:55;;;;;;;3.00;2.70;;;11.10;99.90;;;;;;5097040;28;20552;-43
2022/12/26 06:20:21;;;;;;;2.97;2.50;;;11.10;99.90;;;;;;5097492;28;20618;-44
2022/12/26 06:22:46;;;;;;;3.63;3.10;;;11.10;99.90;;;;;;5096499;28;20418;-45
2022/12/26 06:25:12;;;;;;;2.70;2.47;;;11.10;99.90;;;;;;5097124;28;20353;-46
2022/12/26 06:27:37;;;;;;;3.80;2.87;;;11.10;99.90;;;;;;5097615;28;20177;-41
2022/12/26 06:30:03;;;;;;;3.10;2.80;;;11.10;99.90;;;;;;5097645;28;20575;-43
2022/12/26 06:32:29;;;;;;;3.17;2.70;;;11.10;99.90;;;;;;5097992;28;20268;-44
2022/12/26 06:34:55;;;;;;;4.23;2.63;;;11.10;99.90;;;;;;5096648;28;20461;-42
2022/12/26 06:37:20;;;;;;;3.50;3.20;;;11.20;99.90;;;;;;5097484;28;20245;-44
2022/12/26 06:39:46;;;;;;;3.50;3.13;;;11.20;99.90;;;;;;5096433;28;20204;-43
2022/12/26 06:42:11;;;;;;;2.80;2.50;;;11.20;99.90;;;;;;5095667;28;20269;-42
2022/12/26 06:44:37;;;;;;;3.00;2.70;;;11.20;99.90;;;;;;5096165;28;20572;-44
2022/12/26 06:47:02;;;;;;;3.70;3.23;;;11.20;99.90;;;;;;5097569;28;20235;-44
2022/12/26 06:49:28;;;;;;;3.70;3.40;;;11.20;99.90;;;;;;5096442;28;20184;-42
2022/12/26 06:51:54;;;;;;;3.53;3.20;;;11.20;99.90;;;;;;5096646;28;20188;-41
2022/12/26 06:54:19;;;;;;;3.33;2.60;;;11.20;99.90;;;;;;5096447;28;20200;-42
2022/12/26 06:56:45;;;;;;;3.40;3.10;;;11.20;99.90;;;;;;5095724;28;20530;-43
2022/12/26 06:59:11;;;;;;;3.53;3.23;;;11.20;99.90;;;;;;5094778;28;20204;-42
2022/12/26 07:01:36;;;;;;;2.70;2.50;;;11.20;99.90;;;;;;5096400;28;20258;-42
2022/12/26 07:04:03;;;;;;;3.17;2.87;;;11.30;99.90;;;;;;5097351;28;20446;-42
2022/12/26 07:06:31;;;;;;;3.10;2.80;;;11.20;99.90;;;;;;5097662;28;20203;-43
2022/12/26 07:09:00;;;;;;;6.20;3.17;;;11.20;99.90;;;;;;5097704;28;20425;-45
2022/12/26 07:11:28;;;;;;;3.40;3.10;;;11.30;99.90;;;;;;5097166;28;20889;-45
2022/12/26 07:13:54;;;;;;;3.70;2.60;;;11.30;99.90;;;;;;5096296;28;20530;-43
2022/12/26 07:16:20;;;;;;;4.30;3.10;;;11.30;99.90;;;;;;5096639;28;20453;-42
2022/12/26 07:18:46;;;;;;;3.83;2.90;;;11.30;99.90;;;;;;5096543;28;20466;-43
2022/12/26 07:21:15;;;;;;;3.70;3.40;;;11.30;99.90;;;;;;5062374;28;20880;-42
2022/12/26 07:23:40;;;;;;;3.80;3.30;;;11.30;99.90;;;;;;5096376;28;20467;-43
2022/12/26 07:26:07;;;;;;;5.90;3.63;;;11.30;99.90;;;;;;5096452;28;20433;-42
2022/12/26 07:28:33;;;;;;;3.10;2.80;;;11.30;99.90;;;;;;5080391;28;20576;-42
2022/12/26 07:30:59;;;;;;;3.23;2.93;;;11.30;99.90;;;;;;5097677;28;20426;-44
2022/12/26 07:33:27;;;;;;;4.07;3.47;;;11.40;99.90;;;;;;5097777;28;20414;-44
2022/12/26 07:35:53;;;;;;;3.33;2.90;;;11.40;99.90;;;;;;5078269;28;20434;-44
2022/12/26 07:38:18;;;;;;;2.77;2.53;;;11.40;99.90;;;;;;5100549;28;20464;-43
2022/12/26 07:40:44;;;;;;;3.47;3.17;;;11.40;99.90;;;;;;5100742;28;20184;-44
2022/12/26 07:43:10;;;;;;;5.77;3.63;;;11.40;99.90;;;;;;5099792;28;20169;-44
2022/12/26 07:45:35;;;;;;;3.83;2.77;;;11.50;99.90;;;;;;5097572;28;20218;-43
2022/12/26 07:48:01;;;;;;;3.47;2.93;;;11.50;99.90;;;;;;5098524;28;20173;-45
2022/12/26 07:50:27;;;;;;;3.70;3.17;;;11.50;99.90;;;;;;5098619;28;20177;-46
2022/12/26 07:52:53;;;;;;;3.40;2.93;;;11.50;99.90;;;;;;5098562;28;20494;-42
2022/12/26 07:55:19;;;;;;;3.53;2.97;;;11.50;99.90;;;;;;5099393;28;20475;-43
2022/12/26 07:57:49;;;;;;;3.03;2.80;;;11.60;99.90;;;;;;5098876;28;20901;-45
2022/12/26 08:00:15;;;;;;;3.93;3.23;;;11.50;99.90;;;;;;5097898;28;20414;-44
2022/12/26 08:02:41;;;;;;;3.80;3.10;;;11.60;99.90;;;;;;5097397;28;20417;-44
2022/12/26 08:05:07;;;;;;;4.40;2.80;;;11.50;99.90;;;;;;5098028;28;20426;-44
2022/12/26 08:07:32;;;;;;;4.43;2.93;;;11.50;99.90;;;;;;5098644;28;20184;-42
2022/12/26 08:09:58;;;;;;;3.77;3.07;;;11.50;99.90;;;;;;5098354;28;20173;-43
2022/12/26 08:12:25;;;;;;;3.50;3.17;;;11.50;99.90;;;;;;5097957;28;20665;-43
2022/12/26 08:14:51;;;;;;;3.30;3.00;;;11.50;99.90;;;;;;5098254;28;20183;-43
2022/12/26 08:17:16;;;;;;;3.03;2.73;;;11.50;1.00;;;;;;5098785;28;20415;-43
2022/12/26 08:19:42;;;;;;;4.33;3.20;;;11.40;1.00;;;;;;5098249;28;20176;-45
2022/12/26 08:22:07;;;;;;;4.13;3.47;;;11.40;1.00;;;;;;5098700;28;20267;-43
2022/12/26 08:24:33;;;;;;;3.60;3.30;;;11.40;23.70;;;;;;5098421;28;20179;-43
2022/12/26 08:26:59;;;;;;;4.33;2.93;;;11.50;99.90;;;;;;5098277;28;20628;-45
2022/12/26 08:29:24;;;;;;;3.50;2.77;;;11.50;99.90;;;;;;5118567;28;20557;-44
2022/12/26 08:31:50;;;;;;;4.10;3.53;;;11.50;99.90;;;;;;5119031;28;20320;-42
2022/12/26 08:34:15;;;;;;;3.97;3.57;;;11.60;99.90;;;;;;5119231;28;20618;-42
2022/12/26 08:36:41;;;;;;;3.30;3.00;;;11.70;99.90;;;;;;5119600;28;20196;-42
2022/12/26 08:39:07;;;;;;;3.10;2.80;;;11.70;99.90;;;;;;5119640;28;20218;-43
2022/12/26 08:41:32;;;;;;;4.33;3.90;;;11.70;99.90;;;;;;5119987;28;20551;-43
2022/12/26 08:43:58;;;;;;;4.10;3.70;;;11.70;99.90;;;;;;5119548;28;20260;-44
2022/12/26 08:46:23;;;;;;;4.30;2.83;;;11.70;99.90;;;;;;5101992;28;20188;-43
2022/12/26 08:48:50;;;;;;;3.07;2.77;;;11.70;99.90;;;;;;5097571;28;20205;-43
2022/12/26 08:51:22;;;;;;;4.07;3.57;;;11.60;99.90;;;;;;5097959;28;20685;-42
2022/12/26 08:53:49;;;;;;;5.10;3.97;;;11.60;1.00;;;;;;5098309;28;20476;-42
2022/12/26 08:56:23;;;;;;;4.67;3.80;;;11.60;1.00;;;;;;5098003;28;20437;-43
2022/12/26 08:58:49;;;;;;;5.00;3.70;;;11.60;1.00;;;;;;5097554;28;20461;-42
2022/12/26 09:01:17;;;;;;;5.13;4.30;;;11.60;1.00;;;;;;5097588;28;20430;-43
2022/12/26 09:03:43;;;;;;;6.23;3.80;;;11.50;1.00;;;;;;5097329;28;20165;-43
2022/12/26 09:06:10;;;;;;;4.30;3.90;;;11.50;21.30;;;;;;5096972;28;20422;-42
2022/12/26 09:08:36;;;;;;;4.90;3.70;;;11.50;88.90;;;;;;5096744;28;20418;-45
2022/12/26 09:11:11;;;;;;;4.40;4.00;;;11.50;99.90;;;;;;5096973;28;20482;-43
2022/12/26 09:13:37;;;;;;;5.00;4.30;;;11.50;99.90;;;;;;5097002;28;20491;-45
2022/12/26 09:16:25;;;;;;;4.57;4.17;;;11.50;99.90;;;;;;5097665;28;20442;-44
2022/12/26 09:18:57;;;;;;;4.83;3.73;;;11.40;99.90;;;;;;5098663;28;20449;-44
2022/12/26 09:21:24;;;;;;;4.50;4.07;;;11.40;99.90;;;;;;5098672;28;20465;-44
2022/12/26 09:23:49;;;;;;;2.63;2.07;;;11.40;1.00;;;;;;5097813;28;20411;-44
2022/12/26 09:26:18;;;;;;;5.00;2.50;;;12.10;99.90;;;;;;5097548;28;20418;-45
2022/12/26 09:28:45;;;;;;;5.57;3.10;;;12.60;1.00;;;;;;5097367;28;20169;-46
2022/12/26 09:31:32;;;;;;;5.43;3.27;;;13.10;1.00;;;;;;5096248;28;20889;-44
2022/12/26 09:33:58;;;;;;;5.77;3.30;;;13.70;1.00;;;;;;5096346;28;20472;-43
2022/12/26 09:36:26;;;;;;;4.47;2.97;;;14.20;99.90;;;;;;5096278;28;20709;-45
2022/12/26 09:38:53;;;;;;;9.90;3.40;;;14.50;1.00;;;;;;5095711;28;21067;-44
2022/12/26 09:41:31;;;;;;;3.97;3.57;;;14.80;95.30;;;;;;5096274;28;20430;-46
2022/12/26 09:44:06;;;;;;;5.43;3.20;;;15.10;1.00;;;;;;5096267;28;20410;-46
2022/12/26 09:46:45;;;;;;;3.87;3.47;;;15.20;99.90;;;;;;5094114;28;20922;-45
2022/12/26 09:49:18;;;;;;;6.80;4.30;;;15.20;1.00;;;;;;5094651;28;20410;-44
2022/12/26 09:51:48;;;;;;;4.60;4.17;;;14.80;99.90;;;;;;5093066;28;20430;-44
2022/12/26 09:54:50;;;;;;;5.17;4.67;;;14.40;1.00;;;;;;5093433;28;20419;-42
2022/12/26 09:57:19;;;;;;;5.03;3.93;;;14.00;1.00;;;;;;5062587;28;20430;-41
2022/12/26 09:59:59;;;;;;;7.33;4.37;;;13.60;1.00;;;;;;5091189;28;20441;-42
2022/12/26 10:02:25;;;;;;;6.20;4.70;;;13.40;1.00;;;;;;5093882;28;20466;-42
2022/12/26 10:04:51;;;;;;;5.10;4.50;;;13.10;1.30;;;;;;5090725;28;20426;-44
2022/12/26 10:07:32;;;;;;;5.07;4.57;;;12.90;99.90;;;;;;5092255;28;20422;-41
2022/12/26 10:10:23;;;;;;;6.20;5.60;;;12.70;1.00;;;;;;5091831;28;20422;-41
2022/12/26 10:13:14;;;;;;;6.53;5.83;;;12.50;1.00;;;;;;5090370;28;20572;-42
2022/12/26 10:15:50;;;;;;;7.30;5.10;;;12.40;57.70;;;;;;5095720;28;20521;-41
2022/12/26 10:18:39;;;;;;;5.37;4.80;;;12.30;99.90;;;;;;5096577;28;20465;-42
2022/12/26 10:21:16;;;;;;;7.00;6.40;;;12.20;1.00;;;;;;5096659;28;20737;-43
2022/12/26 10:23:45;;;;;;;6.37;5.43;;;12.10;1.00;;;;;;5096251;28;20803;-45
2022/12/26 10:26:29;;;;;;;5.37;4.87;;;12.00;1.00;;;;;;5096125;28;20740;-41
2022/12/26 10:29:06;;;;;;;7.27;5.93;;;12.00;99.90;;;;;;5095841;28;20811;-43
2022/12/26 10:32:00;;;;;;;5.87;5.27;;;12.00;99.90;;;;;;5093433;28;20518;-42
2022/12/26 10:34:33;;;;;;;6.67;6.03;;;11.90;1.00;;;;;;5055764;28;20415;-41
2022/12/26 10:37:02;;;;;;;6.37;5.70;;;11.90;1.00;;;;;;5094794;28;20429;-42
2022/12/26 10:39:34;;;;;;;6.40;4.70;;;11.90;1.00;;;;;;5077810;28;20461;-44
2022/12/26 10:42:09;;;;;;;7.57;6.33;;;11.90;1.00;;;;;;5094881;28;20415;-43
2022/12/26 10:44:34;;;;;;;7.13;5.33;;;12.00;1.00;;;;;;5092920;28;20410;-42
2022/12/26 10:47:06;;;;;;;8.40;6.37;;;12.00;1.00;;;;;;5092748;28;20685;-42
2022/12/26 10:49:31;;;;;;;5.73;5.10;;;12.00;1.00;;;;;;5093107;28;20183;-43
2022/12/26 10:51:59;;;;;;;6.83;6.13;;;12.00;1.00;;;;;;5092886;28;20501;-44
2022/12/26 10:54:26;;;;;;;5.60;5.07;;;12.00;1.00;;;;;;5092442;28;20169;-43
2022/12/26 10:56:52;;;;;;;5.67;5.07;;;12.10;1.00;;;;;;5094461;28;20406;-45
2022/12/26 10:59:47;;;;;;;4.57;4.17;;;12.00;1.00;;;;;;5092733;28;20484;-44
2022/12/26 11:02:27;;;;;;;5.43;3.33;;;12.10;1.00;;;;;;5094051;28;20427;-44
2022/12/26 11:04:59;;;;;;;3.97;3.57;;;12.00;1.00;;;;;;5094020;28;20541;-42
2022/12/26 11:07:28;;;;;;;4.60;3.40;;;12.00;1.00;;;;;;5095441;28;20410;-44
2022/12/26 11:09:59;;;;;;;2.40;2.20;;;12.00;1.00;;;;;;5095309;28;20873;-43
2022/12/26 11:12:37;;;;;;;2.80;2.53;;;11.90;1.00;;;;;;5098600;28;20659;-43
2022/12/26 11:15:06;;;;;;;4.57;3.00;;;12.00;1.00;;;;;;5100196;28;20526;-42
2022/12/26 11:17:36;;;;;;;4.20;3.43;;;12.00;1.00;;;;;;5099439;28;20482;-41
2022/12/26 11:20:14;;;;;;;3.80;3.40;;;12.00;99.90;;;;;;5096665;28;20422;-43
2022/12/26 11:22:44;;;;;;;3.97;3.57;;;12.10;99.90;;;;;;5099693;28;20411;-41
2022/12/26 11:25:18;;;;;;;5.53;4.27;;;12.10;99.90;;;;;;5100102;28;20910;-41
2022/12/26 11:27:48;;;;;;;3.23;2.63;;;12.10;99.90;;;;;;5100229;28;20422;-43
2022/12/26 11:30:13;;;;;;;3.10;2.70;;;12.20;99.90;;;;;;5097306;28;20457;-41
2022/12/26 11:32:44;;;;;;;3.23;2.93;;;12.20;99.90;;;;;;5093900;28;20410;-44
2022/12/26 11:35:23;;;;;;;2.90;2.30;;;12.20;99.90;;;;;;5093921;28;20172;-41
2022/12/26 11:37:56;;;;;;;3.37;2.37;;;12.20;50.80;;;;;;5094695;28;20462;-42
2022/12/26 11:40:24;;;;;;;3.27;2.37;;;12.20;33.00;;;;;;5094545;28;20422;-43
2022/12/26 11:42:57;;;;;;;2.57;2.10;;;12.20;1.00;;;;;;5073179;28;20470;-42
2022/12/26 11:45:25;;;;;;;2.40;1.70;;;12.20;1.00;;;;;;5079663;28;20438;-44
2022/12/26 11:47:53;;;;;;;2.57;1.97;;;12.10;1.00;;;;;;5078110;28;20469;-42
2022/12/26 11:50:21;;;;;;;2.40;2.07;;;12.00;1.00;;;;;;5059659;28;20435;-43
2022/12/26 11:52:58;;;;;;;5.27;3.40;;;12.00;1.00;;;;;;5076201;28;20522;-43
2022/12/26 11:55:36;;;;;;;1.67;1.40;;;11.90;1.00;;;;;;5077730;28;20471;-42
2022/12/26 11:58:08;;;;;;;2.00;1.33;;;11.90;1.00;;;;;;5097121;28;20564;-42
2022/12/26 12:00:50;;;;;;;1.80;1.37;;;11.80;1.00;;;;;;5093631;28;20442;-44
2022/12/26 12:03:17;;;;;;;2.10;1.40;;;11.90;1.00;;;;;;5075387;28;20427;-42
2022/12/26 12:06:07;;;;;;;2.47;1.30;;;12.00;1.00;;;;;;5087982;28;20458;-43
2022/12/26 12:09:00;;;;;;;1.97;1.57;;;12.10;1.00;;;;;;5092673;28;20441;-47
2022/12/26 12:12:03;;;;;;;1.80;1.50;;;12.20;99.90;;;;;;5064612;28;20658;-48
2022/12/26 12:14:56;;;;;;;1.77;1.20;;;12.30;97.90;;;;;;5083913;28;20430;-46
2022/12/26 12:17:43;;;;;;;2.17;1.40;;;12.40;1.00;;;;;;5077033;28;20620;-43
2022/12/26 12:20:31;;;;;;;1.40;1.30;;;12.50;1.00;;;;;;5081885;28;20837;-43
2022/12/26 12:23:12;;;;;;;1.93;1.37;;;12.50;1.00;;;;;;5059937;28;20572;-43
2022/12/26 12:26:01;;;;;;;1.63;1.27;;;12.60;1.00;;;;;;5081500;28;20838;-45
2022/12/26 12:29:11;;;;;;;1.70;1.20;;;12.60;1.00;;;;;;5061159;28;20764;-42
2022/12/26 12:31:49;;;;;;;4.40;2.43;;;12.50;1.00;;;;;;5077899;28;20450;-47
2022/12/26 12:34:51;;;;;;;4.90;2.90;;;13.10;99.90;;;;;;5076995;28;20414;-47
2022/12/26 12:37:36;;;;;;;4.17;2.03;;;13.80;1.00;;;;;;5060865;28;20453;-46
2022/12/26 12:40:25;;;;;;;7.70;2.50;;;14.30;57.50;;;;;;5061297;28;20427;-47
2022/12/26 12:43:17;;;;;;;4.80;2.00;;;14.60;1.00;;;;;;5077950;28;20435;-45
2022/12/26 12:46:04;;;;;;;1.70;1.07;;;15.10;1.00;;;;;;5043054;28;20431;-42
2022/12/26 12:48:32;;;;;;;1.30;0.87;;;15.10;1.00;;;;;;5088111;28;20438;-42
2022/12/26 12:51:13;;;;;;;1.70;1.07;;;15.00;1.00;;;;;;5059701;28;20549;-42
2022/12/26 12:53:51;;;;;;;1.37;1.20;;;14.60;99.90;;;;;;5058182;28;20443;-42
2022/12/26 12:56:22;;;;;;;1.50;0.90;;;14.30;1.00;;;;;;5077998;28;20730;-45
2022/12/26 12:59:06;;;;;;;1.83;1.00;;;14.00;1.00;;;;;;5077444;28;20470;-42
2022/12/26 13:01:38;;;;;;;1.20;0.87;;;13.80;1.00;;;;;;5086508;28;20445;-44
2022/12/26 13:04:23;;;;;;;1.20;0.77;;;13.60;1.00;;;;;;5069727;28;20439;-43
2022/12/26 13:06:53;;;;;;;1.00;0.70;;;13.40;1.00;;;;;;5059987;28;20439;-42
2022/12/26 13:09:28;;;;;;;1.87;1.67;;;13.30;1.00;;;;;;5068723;28;20778;-43
2022/12/26 13:12:02;;;;;;;1.70;1.40;;;13.20;99.90;;;;;;5096919;28;20473;-44
2022/12/26 13:14:36;;;;;;;2.77;1.80;;;13.20;99.90;;;;;;5079189;28;20417;-43
2022/12/26 13:17:22;;;;;;;1.63;1.23;;;13.20;99.90;;;;;;5075951;28;20505;-42
2022/12/26 13:19:58;;;;;;;2.50;2.10;;;13.10;99.90;;;;;;5057491;28;20541;-42
2022/12/26 13:24:22;;;;;;;2.07;1.83;;;13.00;99.90;;;;;;5058297;28;20465;-43
2022/12/26 13:25:18;;;;;;;2.07;1.53;;;12.90;99.90;;;;;;5083282;28;20813;-42
2022/12/26 13:27:44;;;;;;;1.40;1.00;;;12.80;1.00;;;;;;5077138;28;20494;-42
2022/12/26 13:30:13;;;;;;;1.63;1.20;;;12.70;1.00;;;;;;5059681;28;20504;-42
2022/12/26 13:32:39;;;;;;;2.40;1.20;;;12.70;1.00;;;;;;5090863;28;20491;-43
2022/12/26 13:35:05;;;;;;;1.40;1.20;;;12.70;45.90;;;;;;5085528;28;20434;-43
2022/12/26 13:37:34;;;;;;;1.63;1.23;;;12.80;99.90;;;;;;5071127;28;20438;-42
2022/12/26 13:40:02;;;;;;;2.20;1.70;;;12.80;81.80;;;;;;5083248;28;20189;-43
2022/12/26 13:45:36;;;;;;;1.97;1.50;;;13.00;19.80;;;;;;5081784;28;20491;-42
2022/12/26 13:48:14;;;;;;;1.90;1.50;;;13.00;1.00;;;;;;5091814;28;20465;-46
2022/12/26 13:50:53;;;;;;;1.73;1.40;;;13.00;1.00;;;;;;5095299;28;20454;-42
2022/12/26 13:53:25;;;;;;;2.30;1.53;;;13.00;1.00;;;;;;5089336;28;20457;-45
2022/12/26 13:56:04;;;;;;;2.30;1.90;;;12.90;3.00;;;;;;5087902;28;20538;-41
2022/12/26 13:58:53;;;;;;;2.33;1.83;;;12.80;66.20;;;;;;5089309;28;20931;-43
2022/12/26 14:01:53;;;;;;;2.60;1.73;;;12.80;99.90;;;;;;5076765;28;20527;-45
2022/12/26 14:04:27;;;;;;;2.10;1.60;;;12.70;99.90;;;;;;5077175;28;20529;-46
2022/12/26 14:07:30;;;;;;;3.00;1.80;;;12.60;99.90;;;;;;5076383;28;20470;-44
2022/12/26 14:10:22;;;;;;;2.87;1.73;;;12.50;1.00;;;;;;5095632;28;20529;-42
2022/12/26 14:12:53;;;;;;;1.60;1.37;;;12.40;1.00;;;;;;5091614;28;20509;-42
2022/12/26 14:16:12;;;;;;;2.87;1.53;;;12.30;1.00;;;;;;5074682;28;20778;-43
2022/12/26 14:18:51;;;;;;;1.83;1.40;;;12.20;36.60;;;;;;4975582;28;20909;-49
2022/12/26 14:21:42;;;;;;;2.60;1.43;;;12.10;99.90;;;;;;4988187;28;20545;-42
2022/12/26 14:24:23;;;;;;;2.20;1.30;;;12.00;99.90;;;;;;5043160;28;20695;-42
2022/12/26 14:27:07;;;;;;;1.67;1.40;;;11.90;1.00;;;;;;5085207;28;20438;-41
2022/12/26 14:29:44;;;;;;;2.37;1.37;;;11.80;1.00;;;;;;5092085;28;20437;-43
2022/12/26 14:32:39;;;;;;;1.80;1.40;;;11.80;1.00;;;;;;5090608;28;20434;-41
2022/12/26 14:35:14;;;;;;;2.10;1.33;;;11.70;1.00;;;;;;5080084;28;20447;-42
2022/12/26 14:38:18;;;;;;;1.60;1.30;;;11.70;74.20;;;;;;5057173;28;20744;-43
2022/12/26 14:41:06;;;;;;;1.60;1.30;;;11.60;99.90;;;;;;5089721;28;20437;-42
2022/12/26 14:43:36;;;;;;;1.80;1.60;;;11.60;99.90;;;;;;5076303;28;20928;-44
2022/12/26 14:46:24;;;;;;;1.50;1.33;;;11.60;99.90;;;;;;5077181;28;20434;-41
2022/12/26 14:48:53;;;;;;;2.60;1.30;;;11.60;99.90;;;;;;5095253;28;20437;-43
2022/12/26 14:51:19;;;;;;;2.13;1.50;;;11.60;99.90;;;;;;5097735;28;20611;-44
2022/12/26 14:53:45;;;;;;;1.30;1.10;;;11.60;99.90;;;;;;5098376;28;20814;-43
2022/12/26 14:56:17;;;;;;;1.50;1.20;;;11.70;99.90;;;;;;5060382;28;20189;-43
2022/12/26 14:58:43;;;;;;;1.20;1.00;;;11.60;99.90;;;;;;5086052;28;20560;-42
2022/12/26 15:01:12;;;;;;;1.70;1.40;;;11.60;60.70;;;;;;5093847;28;20919;-41
2022/12/26 15:04:02;;;;;;;2.50;1.50;;;11.60;1.00;;;;;;5099222;28;20981;-44
2022/12/26 15:06:55;;;;;;;1.30;1.13;;;11.60;1.00;;;;;;5079051;28;20461;-42
2022/12/26 15:09:40;;;;;;;2.37;1.40;;;11.50;73.40;;;;;;5065959;28;20439;-42
2022/12/26 15:12:27;;;;;;;1.50;1.40;;;11.40;99.90;;;;;;5080405;28;20481;-43
2022/12/26 15:15:02;;;;;;;2.47;1.50;;;11.40;99.90;;;;;;5077880;28;20457;-47
2022/12/26 15:17:53;;;;;;;2.17;1.70;;;11.30;99.90;;;;;;5078951;28;20406;-42
2022/12/26 15:20:46;;;;;;;1.70;1.40;;;11.20;99.90;;;;;;5079363;28;20435;-41
2022/12/26 15:23:36;;;;;;;1.90;1.40;;;11.20;1.00;;;;;;5092156;28;20438;-42
2022/12/26 15:26:02;;;;;;;2.30;1.40;;;11.10;1.00;;;;;;5077707;28;20429;-42
2022/12/26 15:29:05;;;;;;;1.73;1.30;;;11.00;1.00;;;;;;5079948;28;20441;-41